ECCFQ PFYU-PARC
Flight info
| Callsign | ECCFQ |
|---|---|
| Flight time | 1h 27m |
| Altitude | 2500 |
| Route | DCT |
| Aircraft | DO27/L-VGDW/C |
Departure
| Time | 2026-04-18 15:09 |
|---|---|
| Airport | Fort Yukon Airport (PFYU) |
Arrival
| Time | 2026-04-18 16:37 |
|---|---|
| Airport | Arctic Village Airport (PARC) |
| Time | Latitude | Longitude | Altitude | Speed | Heading |
|---|---|---|---|---|---|
| 2026-04-18 15:01 | 66.56804 | -145.25631 | 462 ft | 0 kts | 151° |
| 2026-04-18 15:06 | 66.56803 | -145.25630 | 462 ft | 0 kts | 150° |
| 2026-04-18 15:06 | 66.56802 | -145.25630 | 462 ft | 0 kts | 154° |
| 2026-04-18 15:06 | 66.56802 | -145.25629 | 462 ft | 0 kts | 159° |
| 2026-04-18 15:06 | 66.56797 | -145.25626 | 443 ft | 4 kts | 186° |
| 2026-04-18 15:07 | 66.56814 | -145.25738 | 461 ft | 9 kts | 312° |
| 2026-04-18 15:07 | 66.56832 | -145.25913 | 464 ft | 10 kts | 292° |
| 2026-04-18 15:07 | 66.56869 | -145.26004 | 460 ft | 10 kts | 308° |
| 2026-04-18 15:07 | 66.56863 | -145.26246 | 459 ft | 19 kts | 244° |
| 2026-04-18 15:08 | 66.56810 | -145.26487 | 460 ft | 20 kts | 242° |
| 2026-04-18 15:08 | 66.56766 | -145.26677 | 459 ft | 8 kts | 225° |
| 2026-04-18 15:08 | 66.56777 | -145.26714 | 459 ft | 9 kts | 59° |
| 2026-04-18 15:08 | 66.56849 | -145.26403 | 461 ft | 50 kts | 58° |
| 2026-04-18 15:09 | 66.57053 | -145.25375 | 634 ft | 66 kts | 64° |
| 2026-04-18 15:09 | 66.57268 | -145.24301 | 803 ft | 70 kts | 53° |
| 2026-04-18 15:09 | 66.57551 | -145.23274 | 1031 ft | 69 kts | 39° |
| 2026-04-18 15:09 | 66.58022 | -145.23324 | 1240 ft | 80 kts | 330° |
| 2026-04-18 15:10 | 66.58282 | -145.24698 | 1388 ft | 98 kts | 281° |
| 2026-04-18 15:10 | 66.58236 | -145.26504 | 1528 ft | 111 kts | 264° |
| 2026-04-18 15:10 | 66.58040 | -145.28472 | 1607 ft | 119 kts | 255° |
| 2026-04-18 15:10 | 66.57765 | -145.30486 | 1688 ft | 125 kts | 252° |
| 2026-04-18 15:11 | 66.57450 | -145.32549 | 1770 ft | 131 kts | 250° |
| 2026-04-18 15:11 | 66.57088 | -145.34659 | 1829 ft | 130 kts | 246° |
| 2026-04-18 15:11 | 66.56721 | -145.36753 | 1827 ft | 133 kts | 252° |
| 2026-04-18 15:11 | 66.56530 | -145.39056 | 1831 ft | 134 kts | 270° |
| 2026-04-18 15:12 | 66.56540 | -145.41375 | 1818 ft | 135 kts | 278° |
| 2026-04-18 15:12 | 66.56603 | -145.43658 | 1912 ft | 130 kts | 278° |
| 2026-04-18 15:12 | 66.56650 | -145.45981 | 1850 ft | 137 kts | 277° |
| 2026-04-18 15:12 | 66.56723 | -145.48349 | 1799 ft | 136 kts | 285° |
| 2026-04-18 15:13 | 66.56973 | -145.50529 | 1880 ft | 125 kts | 298° |
| 2026-04-18 15:13 | 66.57334 | -145.52532 | 1852 ft | 128 kts | 306° |
| 2026-04-18 15:13 | 66.57815 | -145.54404 | 1810 ft | 126 kts | 315° |
| 2026-04-18 15:13 | 66.58373 | -145.56113 | 1755 ft | 127 kts | 316° |
| 2026-04-18 15:14 | 66.58927 | -145.57815 | 1772 ft | 124 kts | 319° |
| 2026-04-18 15:14 | 66.59494 | -145.59416 | 1776 ft | 123 kts | 321° |
| 2026-04-18 15:14 | 66.60062 | -145.61016 | 1817 ft | 122 kts | 318° |
| 2026-04-18 15:15 | 66.60872 | -145.64834 | 1779 ft | 133 kts | 287° |
| 2026-04-18 15:15 | 66.61010 | -145.67169 | 1645 ft | 138 kts | 282° |
| 2026-04-18 15:15 | 66.61157 | -145.69553 | 1628 ft | 134 kts | 285° |
| 2026-04-18 15:15 | 66.61302 | -145.71786 | 1738 ft | 126 kts | 284° |
| 2026-04-18 15:16 | 66.61330 | -145.73904 | 1945 ft | 118 kts | 269° |
| 2026-04-18 15:16 | 66.61227 | -145.76090 | 1864 ft | 132 kts | 267° |
| 2026-04-18 15:16 | 66.61143 | -145.78335 | 1972 ft | 126 kts | 270° |
| 2026-04-18 15:16 | 66.61097 | -145.80594 | 1924 ft | 133 kts | 271° |
| 2026-04-18 15:17 | 66.61038 | -145.82939 | 1904 ft | 133 kts | 272° |
| 2026-04-18 15:17 | 66.61023 | -145.85240 | 1900 ft | 133 kts | 276° |
| 2026-04-18 15:17 | 66.61068 | -145.87583 | 1871 ft | 135 kts | 279° |
| 2026-04-18 15:17 | 66.61109 | -145.89941 | 1839 ft | 135 kts | 276° |
| 2026-04-18 15:18 | 66.61050 | -145.92250 | 1878 ft | 132 kts | 264° |
| 2026-04-18 15:18 | 66.60877 | -145.94525 | 1817 ft | 137 kts | 261° |
| 2026-04-18 15:18 | 66.60639 | -145.96851 | 1844 ft | 135 kts | 256° |
| 2026-04-18 15:18 | 66.60347 | -145.98955 | 1982 ft | 127 kts | 250° |
| 2026-04-18 15:19 | 66.60009 | -146.01104 | 1866 ft | 137 kts | 249° |
| 2026-04-18 15:19 | 66.59570 | -146.03219 | 1917 ft | 131 kts | 238° |
| 2026-04-18 15:19 | 66.59073 | -146.05129 | 1927 ft | 132 kts | 236° |
| 2026-04-18 15:19 | 66.58525 | -146.07026 | 1900 ft | 133 kts | 231° |
| 2026-04-18 15:20 | 66.57959 | -146.08883 | 1870 ft | 136 kts | 234° |
| 2026-04-18 15:20 | 66.57460 | -146.10864 | 1944 ft | 131 kts | 243° |
| 2026-04-18 15:20 | 66.57111 | -146.12960 | 1982 ft | 131 kts | 251° |
| 2026-04-18 15:20 | 66.56784 | -146.15118 | 2021 ft | 130 kts | 250° |
| 2026-04-18 15:21 | 66.56526 | -146.17231 | 2130 ft | 123 kts | 259° |
| 2026-04-18 15:21 | 66.56355 | -146.19333 | 2146 ft | 124 kts | 261° |
| 2026-04-18 15:21 | 66.56191 | -146.21442 | 2169 ft | 124 kts | 261° |
| 2026-04-18 15:21 | 66.56026 | -146.23599 | 2210 ft | 124 kts | 261° |
| 2026-04-18 15:22 | 66.55863 | -146.25710 | 2221 ft | 126 kts | 261° |
| 2026-04-18 15:22 | 66.55704 | -146.27847 | 2264 ft | 125 kts | 261° |
| 2026-04-18 15:22 | 66.55533 | -146.30025 | 2276 ft | 126 kts | 259° |
| 2026-04-18 15:22 | 66.55329 | -146.32131 | 2309 ft | 127 kts | 257° |
| 2026-04-18 15:23 | 66.55125 | -146.34344 | 2329 ft | 128 kts | 259° |
| 2026-04-18 15:23 | 66.54934 | -146.36480 | 2407 ft | 125 kts | 257° |
| 2026-04-18 15:23 | 66.54728 | -146.38614 | 2413 ft | 128 kts | 257° |
| 2026-04-18 15:23 | 66.54516 | -146.40781 | 2451 ft | 126 kts | 257° |
| 2026-04-18 15:24 | 66.54304 | -146.42942 | 2410 ft | 131 kts | 259° |
| 2026-04-18 15:24 | 66.54148 | -146.45270 | 2340 ft | 138 kts | 263° |
| 2026-04-18 15:24 | 66.54012 | -146.47659 | 2318 ft | 139 kts | 263° |
| 2026-04-18 15:24 | 66.53862 | -146.50055 | 2302 ft | 138 kts | 261° |
| 2026-04-18 15:25 | 66.53743 | -146.52420 | 2302 ft | 136 kts | 269° |
| 2026-04-18 15:25 | 66.53701 | -146.54786 | 2238 ft | 138 kts | 269° |
| 2026-04-18 15:25 | 66.53655 | -146.57218 | 2216 ft | 137 kts | 269° |
| 2026-04-18 15:25 | 66.53588 | -146.59573 | 2217 ft | 136 kts | 267° |
| 2026-04-18 15:26 | 66.53500 | -146.61927 | 2227 ft | 135 kts | 266° |
| 2026-04-18 15:26 | 66.53380 | -146.64274 | 2207 ft | 136 kts | 264° |
| 2026-04-18 15:26 | 66.53248 | -146.66628 | 2191 ft | 137 kts | 263° |
| 2026-04-18 15:26 | 66.53109 | -146.68988 | 2206 ft | 135 kts | 264° |
| 2026-04-18 15:27 | 66.52955 | -146.71313 | 2211 ft | 136 kts | 259° |
| 2026-04-18 15:27 | 66.52734 | -146.73617 | 2196 ft | 138 kts | 256° |
| 2026-04-18 15:27 | 66.52472 | -146.75885 | 2206 ft | 136 kts | 258° |
| 2026-04-18 15:27 | 66.52362 | -146.78264 | 2175 ft | 135 kts | 275° |
| 2026-04-18 15:28 | 66.52575 | -146.80512 | 2162 ft | 132 kts | 301° |
| 2026-04-18 15:28 | 66.53132 | -146.82232 | 2146 ft | 125 kts | 330° |
| 2026-04-18 15:28 | 66.53906 | -146.83075 | 2118 ft | 118 kts | 358° |
| 2026-04-18 15:28 | 66.54670 | -146.82911 | 2145 ft | 110 kts | 18° |
| 2026-04-18 15:29 | 66.55433 | -146.82448 | 2145 ft | 111 kts | 20° |
| 2026-04-18 15:29 | 66.56166 | -146.81962 | 2150 ft | 111 kts | 19° |
| 2026-04-18 15:29 | 66.56922 | -146.81526 | 2134 ft | 111 kts | 18° |
| 2026-04-18 15:29 | 66.57677 | -146.81084 | 2118 ft | 112 kts | 19° |
| 2026-04-18 15:30 | 66.58429 | -146.80615 | 2143 ft | 111 kts | 19° |
| 2026-04-18 15:30 | 66.59174 | -146.80162 | 2153 ft | 111 kts | 19° |
| 2026-04-18 15:30 | 66.59928 | -146.79676 | 2142 ft | 111 kts | 20° |
| 2026-04-18 15:30 | 66.60666 | -146.79171 | 2167 ft | 111 kts | 20° |
| 2026-04-18 15:31 | 66.61415 | -146.78607 | 2138 ft | 112 kts | 23° |
| 2026-04-18 15:31 | 66.62150 | -146.78018 | 2162 ft | 110 kts | 22° |
| 2026-04-18 15:31 | 66.62884 | -146.77396 | 2111 ft | 113 kts | 24° |
| 2026-04-18 15:31 | 66.63622 | -146.76736 | 2130 ft | 110 kts | 24° |
| 2026-04-18 15:32 | 66.64352 | -146.76125 | 2080 ft | 113 kts | 24° |
| 2026-04-18 15:32 | 66.65093 | -146.75467 | 2082 ft | 111 kts | 25° |
| 2026-04-18 15:32 | 66.65811 | -146.74750 | 2052 ft | 112 kts | 28° |
| 2026-04-18 15:32 | 66.66510 | -146.73945 | 2054 ft | 110 kts | 30° |
| 2026-04-18 15:33 | 66.67191 | -146.73083 | 1987 ft | 112 kts | 32° |
| 2026-04-18 15:33 | 66.67846 | -146.72110 | 2010 ft | 106 kts | 34° |
| 2026-04-18 15:33 | 66.68526 | -146.71248 | 1928 ft | 112 kts | 30° |
| 2026-04-18 15:33 | 66.69222 | -146.70427 | 1920 ft | 108 kts | 29° |
| 2026-04-18 15:34 | 66.69897 | -146.69579 | 1875 ft | 109 kts | 32° |
| 2026-04-18 15:34 | 66.70568 | -146.68702 | 1843 ft | 108 kts | 30° |
| 2026-04-18 15:34 | 66.71239 | -146.67847 | 1798 ft | 108 kts | 31° |
| 2026-04-18 15:34 | 66.71913 | -146.66967 | 1731 ft | 110 kts | 30° |
| 2026-04-18 15:35 | 66.72625 | -146.66231 | 1688 ft | 110 kts | 23° |
| 2026-04-18 15:35 | 66.73361 | -146.65747 | 1698 ft | 109 kts | 15° |
| 2026-04-18 15:35 | 66.74150 | -146.65566 | 1555 ft | 116 kts | 11° |
| 2026-04-18 15:35 | 66.74950 | -146.65432 | 1532 ft | 113 kts | 8° |
| 2026-04-18 15:36 | 66.75734 | -146.65320 | 1505 ft | 112 kts | 11° |
| 2026-04-18 15:36 | 66.76515 | -146.65162 | 1459 ft | 115 kts | 6° |
| 2026-04-18 15:36 | 66.77326 | -146.65082 | 1375 ft | 115 kts | 11° |
| 2026-04-18 15:36 | 66.78081 | -146.64934 | 1508 ft | 104 kts | 8° |
| 2026-04-18 15:37 | 66.78821 | -146.64747 | 1498 ft | 108 kts | 13° |
| 2026-04-18 15:37 | 66.79566 | -146.64465 | 1505 ft | 108 kts | 14° |
| 2026-04-18 15:37 | 66.80304 | -146.64200 | 1591 ft | 102 kts | 16° |
| 2026-04-18 15:37 | 66.80994 | -146.63874 | 1684 ft | 101 kts | 17° |
| 2026-04-18 15:38 | 66.81689 | -146.63520 | 1751 ft | 101 kts | 18° |
| 2026-04-18 15:38 | 66.82372 | -146.63138 | 1799 ft | 103 kts | 19° |
| 2026-04-18 15:38 | 66.83059 | -146.62676 | 1839 ft | 102 kts | 26° |
| 2026-04-18 15:38 | 66.83659 | -146.61771 | 1849 ft | 101 kts | 42° |
| 2026-04-18 15:39 | 66.84161 | -146.60567 | 1911 ft | 99 kts | 47° |
| 2026-04-18 15:39 | 66.84660 | -146.59338 | 1931 ft | 100 kts | 46° |
| 2026-04-18 15:39 | 66.85168 | -146.58144 | 1998 ft | 97 kts | 44° |
| 2026-04-18 15:39 | 66.85687 | -146.57040 | 2026 ft | 99 kts | 41° |
| 2026-04-18 15:40 | 66.86230 | -146.55966 | 2086 ft | 98 kts | 40° |
| 2026-04-18 15:40 | 66.86767 | -146.54886 | 2139 ft | 98 kts | 42° |
| 2026-04-18 15:40 | 66.87291 | -146.53767 | 2212 ft | 97 kts | 44° |
| 2026-04-18 15:40 | 66.87798 | -146.52668 | 2273 ft | 98 kts | 44° |
| 2026-04-18 15:41 | 66.88320 | -146.51535 | 2365 ft | 96 kts | 43° |
| 2026-04-18 15:41 | 66.88832 | -146.50481 | 2425 ft | 97 kts | 43° |
| 2026-04-18 15:41 | 66.89368 | -146.49409 | 2477 ft | 98 kts | 42° |
| 2026-04-18 15:41 | 66.89891 | -146.48316 | 2549 ft | 97 kts | 45° |
| 2026-04-18 15:42 | 66.90405 | -146.47174 | 2587 ft | 99 kts | 45° |
| 2026-04-18 15:42 | 66.90936 | -146.46053 | 2635 ft | 99 kts | 43° |
| 2026-04-18 15:42 | 66.91483 | -146.44944 | 2681 ft | 100 kts | 43° |
| 2026-04-18 15:42 | 66.92019 | -146.43865 | 2729 ft | 100 kts | 43° |
| 2026-04-18 15:43 | 66.92584 | -146.42778 | 2782 ft | 100 kts | 39° |
| 2026-04-18 15:43 | 66.93165 | -146.41750 | 2812 ft | 102 kts | 39° |
| 2026-04-18 15:43 | 66.93758 | -146.40761 | 2864 ft | 103 kts | 35° |
| 2026-04-18 15:43 | 66.94404 | -146.39998 | 2929 ft | 104 kts | 24° |
| 2026-04-18 15:44 | 66.95134 | -146.39664 | 2955 ft | 110 kts | 9° |
| 2026-04-18 15:44 | 66.95900 | -146.39842 | 3018 ft | 113 kts | 354° |
| 2026-04-18 15:44 | 66.96650 | -146.40587 | 3048 ft | 118 kts | 339° |
| 2026-04-18 15:44 | 66.97358 | -146.41685 | 3080 ft | 120 kts | 334° |
| 2026-04-18 15:45 | 66.98055 | -146.42876 | 3093 ft | 121 kts | 333° |
| 2026-04-18 15:45 | 66.98744 | -146.44101 | 3144 ft | 121 kts | 329° |
| 2026-04-18 15:45 | 66.99401 | -146.45510 | 3144 ft | 124 kts | 325° |
| 2026-04-18 15:45 | 67.00025 | -146.47010 | 3198 ft | 123 kts | 321° |
| 2026-04-18 15:46 | 67.00623 | -146.48623 | 3192 ft | 126 kts | 317° |
| 2026-04-18 15:46 | 67.01169 | -146.50333 | 3238 ft | 126 kts | 312° |
| 2026-04-18 15:46 | 67.01634 | -146.52272 | 3255 ft | 129 kts | 302° |
| 2026-04-18 15:46 | 67.01975 | -146.54408 | 3274 ft | 132 kts | 291° |
| 2026-04-18 15:47 | 67.02200 | -146.56661 | 3320 ft | 131 kts | 286° |
| 2026-04-18 15:47 | 67.02381 | -146.58962 | 3308 ft | 133 kts | 285° |
| 2026-04-18 15:47 | 67.02580 | -146.61257 | 3347 ft | 128 kts | 282° |
| 2026-04-18 15:47 | 67.02680 | -146.62729 | 3373 ft | 126 kts | 283° |
| 2026-04-18 15:48 | 67.02891 | -146.65678 | 3369 ft | 128 kts | 283° |
| 2026-04-18 15:48 | 67.03053 | -146.67913 | 3388 ft | 128 kts | 283° |
| 2026-04-18 15:48 | 67.03166 | -146.69426 | 3390 ft | 128 kts | 284° |
| 2026-04-18 15:48 | 67.03344 | -146.71659 | 3417 ft | 128 kts | 284° |
| 2026-04-18 15:49 | 67.03537 | -146.73861 | 3402 ft | 129 kts | 287° |
| 2026-04-18 15:49 | 67.03794 | -146.76046 | 3419 ft | 127 kts | 291° |
| 2026-04-18 15:49 | 67.04095 | -146.78176 | 3415 ft | 128 kts | 293° |
| 2026-04-18 15:49 | 67.04411 | -146.80286 | 3425 ft | 127 kts | 294° |
| 2026-04-18 15:50 | 67.04722 | -146.82449 | 3416 ft | 128 kts | 292° |
| 2026-04-18 15:50 | 67.05018 | -146.84557 | 3426 ft | 127 kts | 293° |
| 2026-04-18 15:50 | 67.05333 | -146.86683 | 3423 ft | 127 kts | 294° |
| 2026-04-18 15:50 | 67.05642 | -146.88806 | 3423 ft | 127 kts | 293° |
| 2026-04-18 15:51 | 67.05961 | -146.90928 | 3423 ft | 127 kts | 294° |
| 2026-04-18 15:51 | 67.06290 | -146.93022 | 3419 ft | 127 kts | 296° |
| 2026-04-18 15:51 | 67.06636 | -146.95116 | 3416 ft | 127 kts | 296° |
| 2026-04-18 15:51 | 67.06987 | -146.97199 | 3422 ft | 127 kts | 296° |
| 2026-04-18 15:52 | 67.07347 | -146.99281 | 3422 ft | 128 kts | 297° |
| 2026-04-18 15:52 | 67.07709 | -147.01323 | 3436 ft | 126 kts | 297° |
| 2026-04-18 15:52 | 67.08062 | -147.03395 | 3428 ft | 127 kts | 296° |
| 2026-04-18 15:52 | 67.08416 | -147.05480 | 3435 ft | 127 kts | 297° |
| 2026-04-18 15:53 | 67.08765 | -147.07558 | 3432 ft | 127 kts | 295° |
| 2026-04-18 15:53 | 67.09083 | -147.09672 | 3442 ft | 127 kts | 294° |
| 2026-04-18 15:53 | 67.09389 | -147.11795 | 3437 ft | 127 kts | 293° |
| 2026-04-18 15:53 | 67.09695 | -147.13928 | 3451 ft | 127 kts | 293° |
| 2026-04-18 15:54 | 67.10000 | -147.16058 | 3438 ft | 128 kts | 293° |
| 2026-04-18 15:54 | 67.10304 | -147.18186 | 3448 ft | 127 kts | 293° |
| 2026-04-18 15:54 | 67.10605 | -147.20320 | 3436 ft | 128 kts | 293° |
| 2026-04-18 15:54 | 67.10917 | -147.22454 | 3436 ft | 127 kts | 294° |
| 2026-04-18 15:55 | 67.11252 | -147.24557 | 3422 ft | 127 kts | 298° |
| 2026-04-18 15:55 | 67.11711 | -147.26486 | 3414 ft | 125 kts | 311° |
| 2026-04-18 15:55 | 67.12324 | -147.28033 | 3408 ft | 123 kts | 327° |
| 2026-04-18 15:55 | 67.13074 | -147.29069 | 3400 ft | 121 kts | 343° |
| 2026-04-18 15:56 | 67.13868 | -147.29656 | 3406 ft | 119 kts | 353° |
| 2026-04-18 15:56 | 67.14691 | -147.29888 | 3402 ft | 118 kts | 2° |
| 2026-04-18 15:56 | 67.15495 | -147.29655 | 3384 ft | 116 kts | 18° |
| 2026-04-18 15:56 | 67.16237 | -147.28853 | 3377 ft | 115 kts | 32° |
| 2026-04-18 15:57 | 67.16871 | -147.27709 | 3387 ft | 113 kts | 39° |
| 2026-04-18 15:57 | 67.17479 | -147.26407 | 3381 ft | 113 kts | 42° |
| 2026-04-18 15:57 | 67.18076 | -147.25091 | 3382 ft | 113 kts | 40° |
| 2026-04-18 15:57 | 67.18711 | -147.23908 | 3370 ft | 113 kts | 37° |
| 2026-04-18 15:58 | 67.19357 | -147.22734 | 3412 ft | 112 kts | 37° |
| 2026-04-18 15:58 | 67.19987 | -147.21589 | 3407 ft | 114 kts | 37° |
| 2026-04-18 15:58 | 67.20666 | -147.20410 | 3306 ft | 119 kts | 38° |
| 2026-04-18 15:58 | 67.21306 | -147.19131 | 3290 ft | 114 kts | 43° |
| 2026-04-18 15:59 | 67.21840 | -147.17740 | 3357 ft | 108 kts | 50° |
| 2026-04-18 15:59 | 67.22299 | -147.16151 | 3337 ft | 110 kts | 57° |
| 2026-04-18 15:59 | 67.22708 | -147.14466 | 3333 ft | 112 kts | 58° |
| 2026-04-18 15:59 | 67.23199 | -147.12930 | 3367 ft | 110 kts | 44° |
| 2026-04-18 16:00 | 67.23813 | -147.11616 | 3269 ft | 117 kts | 38° |
| 2026-04-18 16:00 | 67.24516 | -147.10561 | 3250 ft | 116 kts | 28° |
| 2026-04-18 16:00 | 67.25238 | -147.09681 | 3281 ft | 114 kts | 29° |
| 2026-04-18 16:00 | 67.25944 | -147.08751 | 3285 ft | 113 kts | 32° |
| 2026-04-18 16:01 | 67.26589 | -147.07583 | 3250 ft | 114 kts | 43° |
| 2026-04-18 16:01 | 67.27107 | -147.06062 | 3248 ft | 113 kts | 56° |
| 2026-04-18 16:01 | 67.27500 | -147.04298 | 3240 ft | 113 kts | 63° |
| 2026-04-18 16:01 | 67.27854 | -147.02509 | 3256 ft | 112 kts | 64° |
| 2026-04-18 16:02 | 67.28196 | -147.00692 | 3253 ft | 112 kts | 66° |
| 2026-04-18 16:02 | 67.28509 | -146.98876 | 3283 ft | 111 kts | 64° |
| 2026-04-18 16:02 | 67.28856 | -146.97084 | 3271 ft | 112 kts | 65° |
| 2026-04-18 16:02 | 67.29171 | -146.95232 | 3294 ft | 111 kts | 67° |
| 2026-04-18 16:03 | 67.29460 | -146.93372 | 3297 ft | 112 kts | 69° |
| 2026-04-18 16:03 | 67.29732 | -146.91462 | 3324 ft | 112 kts | 69° |
| 2026-04-18 16:03 | 67.30049 | -146.89638 | 3341 ft | 111 kts | 65° |
| 2026-04-18 16:03 | 67.30394 | -146.87824 | 3331 ft | 112 kts | 63° |
| 2026-04-18 16:04 | 67.30753 | -146.86051 | 3359 ft | 110 kts | 62° |
| 2026-04-18 16:04 | 67.31125 | -146.84275 | 3332 ft | 113 kts | 62° |
| 2026-04-18 16:04 | 67.31519 | -146.82547 | 3351 ft | 112 kts | 59° |
| 2026-04-18 16:04 | 67.31939 | -146.80838 | 3336 ft | 112 kts | 57° |
| 2026-04-18 16:05 | 67.32401 | -146.79219 | 3349 ft | 112 kts | 53° |
| 2026-04-18 16:05 | 67.32914 | -146.77667 | 3347 ft | 113 kts | 47° |
| 2026-04-18 16:05 | 67.33530 | -146.76418 | 3353 ft | 113 kts | 35° |
| 2026-04-18 16:05 | 67.34183 | -146.75218 | 3318 ft | 115 kts | 39° |
| 2026-04-18 16:06 | 67.34797 | -146.73913 | 3337 ft | 114 kts | 42° |
| 2026-04-18 16:06 | 67.35410 | -146.72619 | 3340 ft | 114 kts | 39° |
| 2026-04-18 16:06 | 67.36050 | -146.71457 | 3340 ft | 114 kts | 36° |
| 2026-04-18 16:06 | 67.36717 | -146.70319 | 3332 ft | 114 kts | 35° |
| 2026-04-18 16:07 | 67.37383 | -146.69222 | 3330 ft | 114 kts | 34° |
| 2026-04-18 16:07 | 67.38042 | -146.68067 | 3314 ft | 114 kts | 39° |
| 2026-04-18 16:07 | 67.38655 | -146.66802 | 3331 ft | 113 kts | 42° |
| 2026-04-18 16:07 | 67.39251 | -146.65468 | 3312 ft | 114 kts | 43° |
| 2026-04-18 16:08 | 67.39846 | -146.64125 | 3316 ft | 113 kts | 42° |
| 2026-04-18 16:08 | 67.40452 | -146.62852 | 3312 ft | 113 kts | 43° |
| 2026-04-18 16:08 | 67.41038 | -146.61477 | 3314 ft | 113 kts | 46° |
| 2026-04-18 16:08 | 67.41593 | -146.60027 | 3317 ft | 112 kts | 48° |
| 2026-04-18 16:09 | 67.42105 | -146.58473 | 3310 ft | 113 kts | 52° |
| 2026-04-18 16:09 | 67.42585 | -146.56865 | 3316 ft | 113 kts | 53° |
| 2026-04-18 16:09 | 67.43064 | -146.55229 | 3306 ft | 113 kts | 54° |
| 2026-04-18 16:09 | 67.43529 | -146.53603 | 3293 ft | 112 kts | 53° |
| 2026-04-18 16:10 | 67.44000 | -146.51969 | 3292 ft | 112 kts | 51° |
| 2026-04-18 16:10 | 67.44477 | -146.50369 | 3277 ft | 113 kts | 53° |
| 2026-04-18 16:10 | 67.44930 | -146.48702 | 3271 ft | 112 kts | 56° |
| 2026-04-18 16:10 | 67.45355 | -146.47007 | 3261 ft | 112 kts | 57° |
| 2026-04-18 16:11 | 67.45769 | -146.45269 | 3245 ft | 112 kts | 59° |
| 2026-04-18 16:11 | 67.46147 | -146.43473 | 3204 ft | 114 kts | 62° |
| 2026-04-18 16:11 | 67.46501 | -146.41626 | 3212 ft | 113 kts | 63° |
| 2026-04-18 16:11 | 67.46833 | -146.39759 | 3188 ft | 114 kts | 65° |
| 2026-04-18 16:12 | 67.47158 | -146.37922 | 3205 ft | 113 kts | 64° |
| 2026-04-18 16:12 | 67.47487 | -146.36053 | 3199 ft | 113 kts | 65° |
| 2026-04-18 16:12 | 67.47799 | -146.34183 | 3204 ft | 112 kts | 66° |
| 2026-04-18 16:12 | 67.48093 | -146.32300 | 3176 ft | 113 kts | 66° |
| 2026-04-18 16:13 | 67.48398 | -146.30404 | 3179 ft | 113 kts | 63° |
| 2026-04-18 16:13 | 67.48810 | -146.28661 | 3181 ft | 112 kts | 52° |
| 2026-04-18 16:13 | 67.49318 | -146.27121 | 3166 ft | 112 kts | 48° |
| 2026-04-18 16:13 | 67.49870 | -146.25676 | 3141 ft | 113 kts | 44° |
| 2026-04-18 16:14 | 67.50437 | -146.24232 | 3113 ft | 114 kts | 45° |
| 2026-04-18 16:14 | 67.51016 | -146.22836 | 3123 ft | 112 kts | 41° |
| 2026-04-18 16:14 | 67.51631 | -146.21530 | 3065 ft | 115 kts | 36° |
| 2026-04-18 16:14 | 67.52298 | -146.20384 | 3056 ft | 114 kts | 33° |
| 2026-04-18 16:15 | 67.53737 | -146.18709 | 2922 ft | 118 kts | 26° |
| 2026-04-18 16:15 | 67.54446 | -146.17716 | 2971 ft | 112 kts | 29° |
| 2026-04-18 16:15 | 67.55168 | -146.16872 | 2895 ft | 117 kts | 19° |
| 2026-04-18 16:16 | 67.55920 | -146.16081 | 2780 ft | 118 kts | 31° |
| 2026-04-18 16:16 | 67.56587 | -146.14907 | 2822 ft | 112 kts | 34° |
| 2026-04-18 16:16 | 67.57245 | -146.13753 | 2727 ft | 115 kts | 34° |
| 2026-04-18 16:16 | 67.57906 | -146.12549 | 2643 ft | 116 kts | 34° |
| 2026-04-18 16:17 | 67.58570 | -146.11382 | 2616 ft | 114 kts | 31° |
| 2026-04-18 16:17 | 67.59254 | -146.10323 | 2543 ft | 116 kts | 30° |
| 2026-04-18 16:17 | 67.59961 | -146.09337 | 2523 ft | 115 kts | 30° |
| 2026-04-18 16:17 | 67.60642 | -146.08260 | 2526 ft | 113 kts | 28° |
| 2026-04-18 16:18 | 67.61368 | -146.07412 | 2468 ft | 116 kts | 20° |
| 2026-04-18 16:18 | 67.62137 | -146.06854 | 2489 ft | 113 kts | 12° |
| 2026-04-18 16:18 | 67.62922 | -146.06560 | 2463 ft | 114 kts | 6° |
| 2026-04-18 16:18 | 67.63685 | -146.06237 | 2523 ft | 111 kts | 15° |
| 2026-04-18 16:19 | 67.64442 | -146.05712 | 2508 ft | 114 kts | 17° |
| 2026-04-18 16:19 | 67.65194 | -146.05174 | 2545 ft | 112 kts | 17° |
| 2026-04-18 16:19 | 67.65940 | -146.04633 | 2601 ft | 110 kts | 15° |
| 2026-04-18 16:19 | 67.66714 | -146.04406 | 2566 ft | 116 kts | 6° |
| 2026-04-18 16:20 | 67.67498 | -146.04225 | 2636 ft | 112 kts | 11° |
| 2026-04-18 16:20 | 67.68279 | -146.04059 | 2605 ft | 118 kts | 358° |
| 2026-04-18 16:20 | 67.69076 | -146.04616 | 2670 ft | 114 kts | 341° |
| 2026-04-18 16:20 | 67.69800 | -146.05375 | 2634 ft | 120 kts | 340° |
| 2026-04-18 16:21 | 67.70565 | -146.06144 | 2730 ft | 115 kts | 342° |
| 2026-04-18 16:21 | 67.71298 | -146.07054 | 2741 ft | 114 kts | 340° |
| 2026-04-18 16:21 | 67.72042 | -146.07646 | 2635 ft | 116 kts | 348° |
| 2026-04-18 16:21 | 67.72806 | -146.08213 | 2651 ft | 118 kts | 346° |
| 2026-04-18 16:22 | 67.73570 | -146.08868 | 2727 ft | 113 kts | 345° |
| 2026-04-18 16:22 | 67.74329 | -146.09578 | 2681 ft | 118 kts | 344° |
| 2026-04-18 16:22 | 67.75111 | -146.10245 | 2703 ft | 117 kts | 342° |
| 2026-04-18 16:22 | 67.75868 | -146.11051 | 2678 ft | 120 kts | 342° |
| 2026-04-18 16:23 | 67.76631 | -146.11885 | 2726 ft | 116 kts | 340° |
| 2026-04-18 16:23 | 67.77381 | -146.12703 | 2722 ft | 117 kts | 347° |
| 2026-04-18 16:23 | 67.78983 | -146.12933 | 2750 ft | 115 kts | 360° |
| 2026-04-18 16:24 | 67.79788 | -146.13058 | 2749 ft | 117 kts | 358° |
| 2026-04-18 16:24 | 67.80590 | -146.13406 | 2769 ft | 115 kts | 350° |
| 2026-04-18 16:24 | 67.81358 | -146.13615 | 2784 ft | 112 kts | 7° |
| 2026-04-18 16:24 | 67.82098 | -146.13059 | 2791 ft | 111 kts | 26° |
| 2026-04-18 16:25 | 67.82791 | -146.12099 | 2771 ft | 113 kts | 28° |
| 2026-04-18 16:25 | 67.83481 | -146.11243 | 2797 ft | 109 kts | 28° |
| 2026-04-18 16:25 | 67.84113 | -146.10162 | 2799 ft | 109 kts | 43° |
| 2026-04-18 16:25 | 67.84574 | -146.08578 | 2820 ft | 108 kts | 56° |
| 2026-04-18 16:26 | 67.85043 | -146.07082 | 2897 ft | 104 kts | 39° |
| 2026-04-18 16:26 | 67.85695 | -146.06238 | 2905 ft | 107 kts | 18° |
| 2026-04-18 16:26 | 67.86436 | -146.05787 | 2866 ft | 111 kts | 14° |
| 2026-04-18 16:26 | 67.87201 | -146.05485 | 2837 ft | 113 kts | 11° |
| 2026-04-18 16:27 | 67.87975 | -146.05240 | 2856 ft | 110 kts | 9° |
| 2026-04-18 16:27 | 67.88723 | -146.05039 | 2871 ft | 111 kts | 7° |
| 2026-04-18 16:27 | 67.89504 | -146.05080 | 2889 ft | 111 kts | 356° |
| 2026-04-18 16:27 | 67.90242 | -146.05556 | 2899 ft | 108 kts | 357° |
| 2026-04-18 16:28 | 67.90978 | -146.05163 | 2978 ft | 112 kts | 16° |
| 2026-04-18 16:28 | 67.91720 | -146.04541 | 2995 ft | 111 kts | 21° |
| 2026-04-18 16:28 | 67.92433 | -146.03787 | 3028 ft | 109 kts | 24° |
| 2026-04-18 16:28 | 67.93123 | -146.02973 | 3050 ft | 108 kts | 26° |
| 2026-04-18 16:29 | 67.93803 | -146.02081 | 3059 ft | 109 kts | 28° |
| 2026-04-18 16:29 | 67.94485 | -146.01225 | 3080 ft | 108 kts | 25° |
| 2026-04-18 16:29 | 67.95168 | -146.00351 | 3075 ft | 111 kts | 26° |
| 2026-04-18 16:29 | 67.95884 | -145.99614 | 3096 ft | 109 kts | 15° |
| 2026-04-18 16:30 | 67.96615 | -145.99096 | 3082 ft | 111 kts | 20° |
| 2026-04-18 16:30 | 67.97286 | -145.98069 | 3067 ft | 111 kts | 42° |
| 2026-04-18 16:30 | 67.97736 | -145.96419 | 3069 ft | 111 kts | 65° |
| 2026-04-18 16:30 | 67.97903 | -145.94409 | 3056 ft | 113 kts | 85° |
| 2026-04-18 16:31 | 67.98033 | -145.92444 | 3049 ft | 110 kts | 56° |
| 2026-04-18 16:31 | 67.98719 | -145.91519 | 2981 ft | 120 kts | 0° |
| 2026-04-18 16:31 | 67.99519 | -145.92067 | 2944 ft | 118 kts | 342° |
| 2026-04-18 16:31 | 68.00319 | -145.92471 | 2904 ft | 117 kts | 2° |
| 2026-04-18 16:32 | 68.01112 | -145.92014 | 2859 ft | 117 kts | 22° |
| 2026-04-18 16:32 | 68.01844 | -145.91136 | 2858 ft | 114 kts | 28° |
| 2026-04-18 16:32 | 68.02457 | -145.89847 | 2834 ft | 114 kts | 51° |
| 2026-04-18 16:32 | 68.02812 | -145.87965 | 2816 ft | 113 kts | 71° |
| 2026-04-18 16:33 | 68.03048 | -145.85996 | 2824 ft | 111 kts | 70° |
| 2026-04-18 16:33 | 68.03364 | -145.84092 | 2803 ft | 113 kts | 59° |
| 2026-04-18 16:33 | 68.03877 | -145.82560 | 2784 ft | 113 kts | 37° |
| 2026-04-18 16:33 | 68.04567 | -145.81497 | 2757 ft | 113 kts | 27° |
| 2026-04-18 16:34 | 68.05246 | -145.80538 | 2731 ft | 112 kts | 33° |
| 2026-04-18 16:34 | 68.05859 | -145.79200 | 2689 ft | 114 kts | 46° |
| 2026-04-18 16:34 | 68.06319 | -145.77507 | 2670 ft | 113 kts | 62° |
| 2026-04-18 16:34 | 68.06619 | -145.75568 | 2672 ft | 111 kts | 68° |
| 2026-04-18 16:35 | 68.06802 | -145.74304 | 2682 ft | 109 kts | 69° |
| 2026-04-18 16:35 | 68.07003 | -145.72395 | 2693 ft | 104 kts | 84° |
| 2026-04-18 16:35 | 68.07099 | -145.70536 | 2735 ft | 101 kts | 70° |
| 2026-04-18 16:35 | 68.07430 | -145.68911 | 2747 ft | 101 kts | 54° |
| 2026-04-18 16:36 | 68.07859 | -145.67391 | 2747 ft | 103 kts | 48° |
| 2026-04-18 16:36 | 68.08380 | -145.66046 | 2740 ft | 105 kts | 44° |
| 2026-04-18 16:36 | 68.08927 | -145.64714 | 2701 ft | 103 kts | 42° |
| 2026-04-18 16:36 | 68.09402 | -145.63559 | 2588 ft | 82 kts | 44° |
| 2026-04-18 16:37 | 68.09766 | -145.62575 | 2448 ft | 66 kts | 44° |
| 2026-04-18 16:37 | 68.10047 | -145.61788 | 2360 ft | 55 kts | 49° |
| 2026-04-18 16:37 | 68.10278 | -145.61142 | 2321 ft | 47 kts | 41° |
| 2026-04-18 16:37 | 68.10506 | -145.60550 | 2251 ft | 44 kts | 30° |
| 2026-04-18 16:38 | 68.10737 | -145.59961 | 2223 ft | 46 kts | 51° |
| 2026-04-18 16:38 | 68.10966 | -145.59320 | 2163 ft | 49 kts | 47° |
| 2026-04-18 16:38 | 68.11188 | -145.58681 | 2134 ft | 47 kts | 45° |
| 2026-04-18 16:38 | 68.11385 | -145.58144 | 2125 ft | 29 kts | 46° |
| 2026-04-18 16:39 | 68.11481 | -145.57802 | 2126 ft | 18 kts | 75° |
| 2026-04-18 16:39 | 68.11479 | -145.57517 | 2128 ft | 14 kts | 90° |
| 2026-04-18 16:39 | 68.11523 | -145.57349 | 2127 ft | 9 kts | 39° |
| 2026-04-18 16:39 | 68.11564 | -145.57249 | 2127 ft | 6 kts | 46° |
| 2026-04-18 16:40 | 68.11585 | -145.57176 | 2127 ft | 2 kts | 147° |
| 2026-04-18 16:40 | 68.11583 | -145.57171 | 2127 ft | 0 kts | 175° |